This is the latest recevied weather packets stored in our database for station/object DB5WY-13. If no packets are shown the sender has not sent any weather packets the latest 10 day(s).
| Time | Temp. | Humidity | Pressure | Rain* | Wind** | Luminosity | Snow |
|---|---|---|---|---|---|---|---|
| 1777130442 | 15.56° C | 31% | 1019.7 hPa | 0 mm | - | - | - |
| 1777129842 | 15.56° C | 30% | 1019.7 hPa | 0 mm | - | - | - |
| 1777129242 | 15.56° C | 29% | 1019.6 hPa | 0 mm | - | - | - |
| 1777128642 | 16.11° C | 29% | 1019.8 hPa | 0 mm | - | - | - |
| 1777128042 | 16.67° C | 30% | 1019.9 hPa | 0 mm | - | - | - |
| 1777127442 | 17.22° C | 29% | 1019.7 hPa | 0 mm | - | - | - |
| 1777126842 | 18.33° C | 28% | 1019.7 hPa | 0 mm | - | - | - |
| 1777126242 | 21.11° C | 24% | 1019.8 hPa | 0 mm | - | - | - |
| 1777125642 | 26.11° C | 21% | 1019.7 hPa | 0 mm | - | - | - |
| 1777125042 | 26.67° C | 20% | 1019.7 hPa | 0 mm | - | - | - |
| 1777124442 | 27.22° C | 19% | 1019.8 hPa | 0 mm | - | - | - |
| 1777123842 | 27.78° C | 19% | 1019.8 hPa | 0 mm | - | - | - |
| 1777123242 | 27.22° C | 20% | 1019.9 hPa | 0 mm | - | - | - |
| 1777122642 | 26.67° C | 21% | 1019.9 hPa | 0 mm | - | - | - |
| 1777122042 | 27.22° C | 21% | 1019.9 hPa | 0 mm | - | - | - |
| 1777121442 | 27.22° C | 20% | 1020.1 hPa | 0 mm | - | - | - |
| 1777120842 | 27.78° C | 20% | 1020.2 hPa | 0 mm | - | - | - |
| 1777120242 | 27.78° C | 19% | 1020.1 hPa | 0 mm | - | - | - |
| 1777119642 | 27.22° C | 17% | 1020.1 hPa | 0 mm | - | - | - |
| 1777119042 | 27.22° C | 17% | 1020.3 hPa | 0 mm | - | - | - |
| 1777118443 | 27.22° C | 17% | 1020.2 hPa | 0 mm | - | - | - |
| 1777117843 | 26.67° C | 17% | 1020.3 hPa | 0 mm | - | - | - |
| 1777117243 | 27.22° C | 19% | 1020.4 hPa | 0 mm | - | - | - |
| 1777116643 | 27.22° C | 20% | 1020.5 hPa | 0 mm | - | - | - |
| 1777116043 | 27.78° C | 21% | 1020.5 hPa | 0 mm | - | - | - |
* Rain latest hour (hover to see other rain measurements)
** Current wind speed in m/s (hover to see current wind gust speed)